Time;durP1;ratioP1;P1;durP2;ratioP2;P2;SDS_P1;SDS_P2;PMS_P1;PMS_P2;Temp;Humidity;BMP_temperature;BMP_pressure;BME280_temperature;BME280_humidity;BME280_pressure;Samples;Min_cycle;Max_cycle;Signal;HPM_P1;HPM_P2
2023/04/25 00:01:21;;;;;;;13.07;4.30;;;6.50;75.60;;;;;;5073692;28;20048;-42
2023/04/25 00:03:51;;;;;;;20.48;4.07;;;6.50;76.60;;;;;;5056481;28;20154;-42
2023/04/25 00:06:19;;;;;;;16.85;3.90;;;6.50;76.10;;;;;;5074322;28;20020;-43
2023/04/25 00:08:48;;;;;;;15.52;4.35;;;6.50;76.30;;;;;;5074016;28;20029;-44
2023/04/25 00:11:15;;;;;;;19.13;5.15;;;6.50;76.80;;;;;;5073895;28;20077;-43
2023/04/25 00:13:43;;;;;;;23.25;6.97;;;6.50;77.00;;;;;;5081601;28;20031;-42
2023/04/25 00:16:13;;;;;;;24.55;4.40;;;6.50;76.70;;;;;;5093894;28;20028;-43
2023/04/25 00:18:46;;;;;;;14.18;3.55;;;6.50;76.40;;;;;;5094340;28;20093;-43
2023/04/25 00:21:12;;;;;;;14.55;3.83;;;6.50;75.40;;;;;;5041960;28;20500;-42
2023/04/25 00:23:40;;;;;;;14.48;4.13;;;6.50;74.30;;;;;;5074283;28;20060;-42
2023/04/25 00:26:06;;;;;;;15.73;5.03;;;6.50;74.30;;;;;;5056414;28;20032;-42
2023/04/25 00:28:35;;;;;;;13.95;3.53;;;6.50;75.20;;;;;;5055949;28;20028;-42
2023/04/25 00:31:04;;;;;;;14.77;3.08;;;6.50;74.90;;;;;;5073913;28;20033;-42
2023/04/25 00:33:31;;;;;;;13.97;3.53;;;6.50;74.50;;;;;;5056661;28;20063;-45
2023/04/25 00:35:59;;;;;;;22.40;4.30;;;6.50;74.30;;;;;;5073913;28;20024;-42
2023/04/25 00:38:27;;;;;;;11.48;3.08;;;6.50;73.70;;;;;;5073604;28;20025;-43
2023/04/25 00:40:55;;;;;;;23.05;7.15;;;6.50;74.60;;;;;;5073425;28;20357;-43
2023/04/25 00:43:22;;;;;;;16.52;3.42;;;6.50;74.90;;;;;;5073633;28;20020;-46
2023/04/25 00:45:51;;;;;;;12.95;3.08;;;6.50;75.20;;;;;;5073453;28;20104;-42
2023/04/25 00:48:21;;;;;;;17.75;4.82;;;6.50;75.60;;;;;;5056033;28;20048;-43
2023/04/25 00:50:59;;;;;;;17.13;4.60;;;6.50;76.00;;;;;;5056290;28;20365;-44
2023/04/25 00:53:31;;;;;;;13.25;3.90;;;6.50;75.30;;;;;;5073421;28;20024;-43
2023/04/25 00:55:58;;;;;;;17.45;4.22;;;6.50;75.30;;;;;;5055939;28;20039;-43
2023/04/25 00:58:25;;;;;;;18.05;3.97;;;6.50;75.20;;;;;;5055789;28;20036;-42
2023/04/25 01:00:57;;;;;;;14.77;3.30;;;6.50;75.30;;;;;;5055634;28;20036;-42
2023/04/25 01:03:28;;;;;;;18.98;4.10;;;6.50;75.00;;;;;;5055530;28;20029;-42
2023/04/25 01:05:58;;;;;;;18.48;3.47;;;6.50;74.40;;;;;;5073128;28;20357;-43
2023/04/25 01:08:27;;;;;;;16.77;3.97;;;6.50;74.50;;;;;;5073980;28;20032;-43
2023/04/25 01:10:53;;;;;;;13.85;3.50;;;6.50;73.50;;;;;;5092817;28;20040;-43
2023/04/25 01:13:23;;;;;;;14.45;2.97;;;6.40;73.50;;;;;;5093181;28;20081;-43
2023/04/25 01:15:54;;;;;;;16.50;3.95;;;6.40;73.40;;;;;;5085763;28;20049;-43
2023/04/25 01:18:23;;;;;;;18.73;4.35;;;6.30;72.40;;;;;;5073100;28;20648;-43
2023/04/25 01:20:52;;;;;;;18.40;5.17;;;6.20;72.50;;;;;;5073124;28;20067;-42
2023/04/25 01:23:24;;;;;;;18.02;3.58;;;6.10;72.10;;;;;;5038834;28;20037;-42
2023/04/25 01:25:57;;;;;;;18.17;3.90;;;6.10;72.30;;;;;;5056102;28;20051;-43
2023/04/25 01:28:26;;;;;;;15.27;3.25;;;6.10;72.90;;;;;;5072965;28;20146;-43
2023/04/25 01:30:53;;;;;;;16.23;3.27;;;6.00;73.00;;;;;;5055645;28;20430;-44
2023/04/25 01:33:22;;;;;;;15.73;2.92;;;6.00;73.80;;;;;;5054854;28;20030;-44
2023/04/25 01:35:49;;;;;;;18.67;5.60;;;6.00;75.00;;;;;;5054990;28;20032;-44
2023/04/25 01:38:17;;;;;;;22.38;4.30;;;6.00;75.70;;;;;;5072617;28;20299;-43
2023/04/25 01:40:46;;;;;;;11.20;3.65;;;6.00;76.40;;;;;;5055221;28;20051;-42
2023/04/25 01:43:14;;;;;;;18.67;3.63;;;6.00;76.60;;;;;;5064584;28;20401;-43
2023/04/25 01:45:42;;;;;;;17.50;3.28;;;6.10;75.50;;;;;;5072457;28;20052;-44
2023/04/25 01:48:15;;;;;;;16.65;3.55;;;6.00;74.70;;;;;;5081498;28;20114;-43
2023/04/25 01:50:41;;;;;;;13.98;3.35;;;6.00;73.50;;;;;;5075046;28;20031;-44
2023/04/25 01:53:12;;;;;;;15.43;3.92;;;6.00;73.60;;;;;;5082551;28;20434;-44
2023/04/25 01:55:37;;;;;;;18.02;4.47;;;6.00;72.90;;;;;;5071705;28;20040;-43
2023/04/25 01:58:12;;;;;;;18.38;3.72;;;5.90;73.30;;;;;;5072637;28;20162;-44
2023/04/25 02:00:51;;;;;;;15.13;3.20;;;5.90;73.40;;;;;;5072433;28;20036;-43
2023/04/25 02:03:16;;;;;;;14.95;3.78;;;5.90;73.20;;;;;;5072668;28;20031;-43
2023/04/25 02:05:44;;;;;;;14.88;3.90;;;5.90;73.30;;;;;;5038012;28;20036;-44
2023/04/25 02:08:11;;;;;;;16.80;3.63;;;5.80;73.20;;;;;;5072492;28;20029;-44
2023/04/25 02:10:38;;;;;;;14.43;4.22;;;5.70;74.10;;;;;;5072253;28;20373;-44
2023/04/25 02:13:05;;;;;;;16.23;4.43;;;5.80;75.60;;;;;;5072551;28;20162;-42
2023/04/25 02:15:33;;;;;;;18.40;4.80;;;5.80;76.80;;;;;;5072506;28;20104;-43
2023/04/25 02:18:00;;;;;;;10.63;3.58;;;5.80;77.20;;;;;;5072636;28;20032;-43
2023/04/25 02:20:27;;;;;;;16.02;3.90;;;5.80;75.30;;;;;;5072329;28;20087;-43
2023/04/25 02:22:55;;;;;;;16.02;5.03;;;5.80;73.70;;;;;;5075685;28;20078;-43
2023/04/25 02:25:22;;;;;;;18.25;4.13;;;5.80;73.00;;;;;;5058573;28;20468;-44
2023/04/25 02:27:51;;;;;;;10.80;2.70;;;5.80;72.90;;;;;;5056949;28;20493;-45
2023/04/25 02:30:18;;;;;;;15.93;2.80;;;5.80;72.70;;;;;;5076077;28;20036;-43
2023/04/25 02:32:48;;;;;;;13.43;3.13;;;5.80;72.40;;;;;;5076002;28;20476;-43
2023/04/25 02:35:15;;;;;;;16.83;3.70;;;5.70;72.70;;;;;;5075812;28;20037;-43
2023/04/25 02:37:41;;;;;;;11.32;2.50;;;5.70;73.00;;;;;;5075792;28;20070;-44
2023/04/25 02:40:09;;;;;;;13.93;2.92;;;5.70;73.50;;;;;;5058328;28;20051;-44
2023/04/25 02:42:37;;;;;;;13.80;3.30;;;5.60;73.80;;;;;;5057939;28;20036;-42
2023/04/25 02:45:07;;;;;;;13.13;2.78;;;5.60;74.70;;;;;;5075842;28;20040;-49
2023/04/25 02:47:34;;;;;;;11.32;3.42;;;5.50;74.80;;;;;;5058892;28;20071;-44
2023/04/25 02:50:02;;;;;;;10.95;2.85;;;5.50;74.90;;;;;;5058203;28;20039;-44
2023/04/25 02:52:29;;;;;;;17.92;3.80;;;5.50;75.70;;;;;;5076025;28;20112;-43
2023/04/25 02:54:57;;;;;;;16.05;3.72;;;5.50;76.40;;;;;;5075496;28;20021;-45
2023/04/25 02:57:25;;;;;;;13.55;4.05;;;5.50;77.10;;;;;;5075655;28;20036;-44
2023/04/25 02:59:52;;;;;;;19.98;3.92;;;5.60;76.70;;;;;;5075837;28;20032;-43
2023/04/25 03:02:19;;;;;;;13.73;3.13;;;5.70;76.90;;;;;;5075479;28;20043;-43
2023/04/25 03:04:45;;;;;;;15.63;3.95;;;5.90;77.90;;;;;;5075235;28;20450;-44
2023/04/25 03:07:16;;;;;;;19.88;4.53;;;5.90;79.40;;;;;;5075525;28;20017;-43
2023/04/25 03:09:43;;;;;;;17.05;5.25;;;5.90;81.00;;;;;;5086540;28;20036;-43
2023/04/25 03:12:13;;;;;;;15.30;3.78;;;5.90;81.80;;;;;;5077627;28;20342;-42
2023/04/25 03:14:44;;;;;;;16.00;3.95;;;5.90;82.00;;;;;;5095703;28;20103;-43
2023/04/25 03:17:11;;;;;;;13.32;3.42;;;5.90;82.10;;;;;;5071340;28;20032;-43
2023/04/25 03:19:38;;;;;;;19.63;4.03;;;5.90;81.90;;;;;;5075233;28;20041;-43
2023/04/25 03:22:06;;;;;;;15.48;3.58;;;5.90;82.00;;;;;;5075172;28;20342;-43
2023/04/25 03:24:33;;;;;;;20.40;3.40;;;6.00;82.50;;;;;;5075207;28;20037;-43
2023/04/25 03:27:01;;;;;;;22.48;4.47;;;5.90;82.20;;;;;;5074643;28;20100;-43
2023/04/25 03:29:28;;;;;;;16.55;4.15;;;6.00;82.10;;;;;;5074557;28;20024;-43
2023/04/25 03:31:54;;;;;;;19.80;3.97;;;6.10;81.70;;;;;;5074446;28;20028;-43
2023/04/25 03:34:23;;;;;;;17.33;3.85;;;6.10;81.10;;;;;;5062268;28;20043;-44
2023/04/25 03:36:51;;;;;;;19.17;4.53;;;6.10;80.80;;;;;;5095330;28;20086;-44
2023/04/25 03:39:21;;;;;;;12.02;3.10;;;6.10;80.40;;;;;;5095082;28;20020;-44
2023/04/25 03:41:50;;;;;;;10.93;3.45;;;6.00;79.50;;;;;;5094837;28;20036;-43
2023/04/25 03:44:16;;;;;;;15.52;2.78;;;6.10;77.60;;;;;;5075810;28;20036;-43
2023/04/25 03:46:45;;;;;;;8.80;2.70;;;6.10;75.90;;;;;;5074452;28;20350;-43
2023/04/25 03:49:13;;;;;;;11.45;2.10;;;6.10;75.30;;;;;;5074484;28;20033;-44
2023/04/25 03:51:39;;;;;;;9.65;2.05;;;6.20;75.40;;;;;;5072418;28;20466;-43
2023/04/25 03:54:07;;;;;;;9.00;2.22;;;6.20;75.00;;;;;;5074584;28;20029;-43
2023/04/25 03:56:35;;;;;;;14.60;5.07;;;6.20;74.90;;;;;;5074829;28;20025;-43
2023/04/25 03:59:03;;;;;;;18.83;4.07;;;6.20;76.50;;;;;;5073391;28;20334;-43
2023/04/25 04:01:29;;;;;;;14.50;3.55;;;6.30;78.40;;;;;;5074248;28;20039;-44
2023/04/25 04:03:55;;;;;;;26.33;4.63;;;6.30;79.10;;;;;;5074097;28;20353;-44
2023/04/25 04:06:21;;;;;;;16.88;2.75;;;6.30;79.50;;;;;;5074668;28;20081;-42
2023/04/25 04:08:53;;;;;;;13.52;2.95;;;6.30;79.10;;;;;;5074050;28;20373;-46
2023/04/25 04:11:20;;;;;;;11.70;3.25;;;6.20;78.40;;;;;;5074297;28;20032;-44
2023/04/25 04:13:50;;;;;;;19.77;2.97;;;6.20;78.50;;;;;;5074262;28;20086;-43
2023/04/25 04:16:18;;;;;;;14.15;2.63;;;6.20;78.50;;;;;;5073954;28;20368;-43
2023/04/25 04:18:47;;;;;;;8.07;2.15;;;6.20;78.40;;;;;;5056749;28;20069;-43
2023/04/25 04:21:12;;;;;;;12.98;3.10;;;6.20;78.20;;;;;;5084048;28;20052;-43
2023/04/25 04:23:39;;;;;;;14.75;3.13;;;6.20;78.30;;;;;;5094054;28;20028;-44
2023/04/25 04:26:08;;;;;;;9.18;2.20;;;6.10;78.50;;;;;;5094184;28;20020;-43
2023/04/25 04:28:35;;;;;;;14.67;3.33;;;6.10;79.00;;;;;;5076341;28;20062;-44
2023/04/25 04:31:03;;;;;;;14.68;3.03;;;6.00;78.40;;;;;;5075224;28;20032;-44
2023/04/25 04:33:30;;;;;;;9.82;2.90;;;6.00;77.80;;;;;;5073869;28;20028;-45
2023/04/25 04:35:57;;;;;;;20.15;3.30;;;6.00;76.30;;;;;;5073616;28;20108;-45
2023/04/25 04:38:23;;;;;;;12.10;2.63;;;6.10;76.70;;;;;;5090434;28;20036;-45
2023/04/25 04:40:52;;;;;;;10.68;2.38;;;6.10;74.80;;;;;;5084017;28;20334;-45
2023/04/25 04:43:19;;;;;;;14.63;1.97;;;6.10;71.90;;;;;;5073774;28;20100;-43
2023/04/25 04:45:47;;;;;;;8.82;2.00;;;6.10;71.70;;;;;;5073287;28;20266;-43
2023/04/25 04:48:16;;;;;;;12.13;2.20;;;6.20;72.70;;;;;;5073682;28;20370;-44
2023/04/25 04:50:45;;;;;;;11.05;2.10;;;6.10;73.60;;;;;;5068901;28;20039;-44
2023/04/25 04:53:11;;;;;;;;;;;6.00;73.90;;;;;;5071447;28;20110;-42
2023/04/25 04:55:40;;;;;;;7.90;2.20;;;5.90;73.30;;;;;;5072697;28;19932;-43
2023/04/25 04:58:07;;;;;;;7.15;1.85;;;5.80;73.90;;;;;;5073143;28;20054;-45
2023/04/25 05:00:34;;;;;;;9.40;2.28;;;5.80;74.00;;;;;;5072643;28;20513;-45
2023/04/25 05:03:01;;;;;;;8.98;2.17;;;5.80;74.60;;;;;;5055974;28;20036;-42
2023/04/25 05:05:29;;;;;;;9.02;2.33;;;5.90;74.80;;;;;;5073099;28;20400;-43
2023/04/25 05:08:00;;;;;;;20.98;3.38;;;5.80;74.80;;;;;;5073166;28;20064;-43
2023/04/25 05:10:29;;;;;;;18.13;3.30;;;5.90;76.10;;;;;;5073299;28;20104;-44
2023/04/25 05:12:55;;;;;;;13.10;3.80;;;5.90;77.80;;;;;;5073250;28;20024;-48
2023/04/25 05:15:22;;;;;;;14.93;2.72;;;5.90;79.40;;;;;;5055381;28;20295;-46
2023/04/25 05:17:48;;;;;;;14.35;3.08;;;6.00;79.50;;;;;;5073208;28;20025;-44
2023/04/25 05:20:15;;;;;;;7.13;2.38;;;6.10;79.00;;;;;;5072799;28;20060;-43
2023/04/25 05:22:45;;;;;;;11.15;2.20;;;6.20;78.50;;;;;;5073299;28;20024;-45
2023/04/25 05:25:14;;;;;;;15.75;2.35;;;6.20;77.00;;;;;;5073084;28;20315;-44
2023/04/25 05:27:40;;;;;;;11.20;2.00;;;6.30;75.00;;;;;;5072911;28;20366;-44
2023/04/25 05:30:06;;;;;;;12.73;4.15;;;6.40;72.70;;;;;;5073102;28;20051;-44
2023/04/25 05:32:33;;;;;;;7.10;1.80;;;6.40;73.10;;;;;;5079622;28;20038;-43
2023/04/25 05:34:59;;;;;;;12.20;1.95;;;6.40;74.30;;;;;;5092812;28;20553;-46
2023/04/25 05:37:25;;;;;;;15.13;3.13;;;6.50;74.90;;;;;;5073890;28;20108;-44
2023/04/25 05:39:52;;;;;;;10.63;2.20;;;6.50;75.40;;;;;;5072825;28;20096;-43
2023/04/25 05:42:19;;;;;;;7.15;1.75;;;6.40;75.50;;;;;;5072788;28;20025;-44
2023/04/25 05:44:47;;;;;;;9.15;2.28;;;6.40;75.90;;;;;;5072814;28;20021;-43
2023/04/25 05:47:14;;;;;;;10.38;1.88;;;6.40;76.50;;;;;;5072642;28;20355;-44
2023/04/25 05:49:39;;;;;;;14.85;2.30;;;6.40;76.40;;;;;;5072592;28;20353;-44
2023/04/25 05:52:05;;;;;;;13.68;2.75;;;6.40;75.90;;;;;;5054695;28;20128;-44
2023/04/25 05:54:39;;;;;;;12.48;3.05;;;6.40;75.90;;;;;;5072327;28;20048;-45
2023/04/25 05:57:33;;;;;;;11.90;2.60;;;6.50;75.70;;;;;;5074268;28;20022;-48
2023/04/25 06:00:01;;;;;;;7.85;2.40;;;6.50;75.50;;;;;;5076060;28;20024;-45
2023/04/25 06:02:30;;;;;;;12.23;2.60;;;6.50;74.80;;;;;;5077006;28;20086;-44
2023/04/25 06:04:59;;;;;;;10.27;2.35;;;6.60;74.90;;;;;;5076341;28;20033;-45
2023/04/25 06:07:26;;;;;;;13.88;3.67;;;6.60;75.30;;;;;;5076375;28;20028;-47
2023/04/25 06:09:53;;;;;;;12.25;2.25;;;6.70;75.70;;;;;;5076011;28;20051;-44
2023/04/25 06:12:21;;;;;;;15.32;3.47;;;6.70;74.90;;;;;;5076106;28;20085;-43
2023/04/25 06:14:49;;;;;;;10.93;2.33;;;6.70;75.70;;;;;;5076194;28;20115;-44
2023/04/25 06:17:17;;;;;;;17.13;3.70;;;6.80;75.90;;;;;;5058419;28;20496;-44
2023/04/25 06:19:45;;;;;;;8.98;2.95;;;7.00;75.80;;;;;;5076102;28;20466;-44
2023/04/25 06:22:13;;;;;;;11.50;2.10;;;7.30;75.70;;;;;;5076243;28;20103;-44
2023/04/25 06:24:39;;;;;;;11.60;2.15;;;7.50;74.30;;;;;;5076253;28;20035;-43
2023/04/25 06:27:07;;;;;;;11.27;3.00;;;7.60;73.90;;;;;;5042117;28;20074;-43
2023/04/25 06:29:35;;;;;;;13.25;2.42;;;7.50;74.00;;;;;;5076113;28;20032;-44
2023/04/25 06:32:03;;;;;;;17.05;2.88;;;7.20;76.80;;;;;;5058642;28;20021;-44
2023/04/25 06:34:33;;;;;;;9.43;2.42;;;6.80;78.70;;;;;;5076300;28;20037;-43
2023/04/25 06:37:00;;;;;;;7.20;1.98;;;6.40;80.70;;;;;;5076445;28;20493;-44
2023/04/25 06:39:27;;;;;;;11.10;2.30;;;6.10;82.00;;;;;;5075886;28;20024;-44
2023/04/25 06:41:55;;;;;;;11.50;2.28;;;5.90;82.60;;;;;;5075942;28;20028;-44
2023/04/25 06:44:23;;;;;;;9.75;1.52;;;5.80;82.20;;;;;;5075640;28;20041;-43
2023/04/25 06:46:53;;;;;;;5.75;2.50;;;5.80;81.80;;;;;;5075492;28;20028;-44
2023/04/25 06:49:20;;;;;;;;;;;5.80;81.30;;;;;;5076034;28;20342;-44
2023/04/25 06:51:47;;;;;;;7.93;1.58;;;5.90;81.50;;;;;;5075604;28;19991;-45
2023/04/25 06:54:14;;;;;;;14.73;4.50;;;6.00;79.70;;;;;;5095434;28;20354;-44
2023/04/25 06:56:43;;;;;;;11.25;2.17;;;6.10;78.10;;;;;;5096043;28;20051;-45
2023/04/25 06:59:09;;;;;;;4.32;1.02;;;6.30;77.40;;;;;;5095924;28;20085;-45
2023/04/25 07:01:37;;;;;;;5.43;1.52;;;6.30;76.10;;;;;;5074834;28;20067;-43
2023/04/25 07:04:06;;;;;;;4.18;1.45;;;6.50;75.80;;;;;;5075494;28;20025;-44
2023/04/25 07:06:31;;;;;;;6.37;1.30;;;6.60;75.30;;;;;;5057767;28;20040;-45
2023/04/25 07:08:58;;;;;;;8.57;1.80;;;6.70;75.70;;;;;;5073804;28;20454;-45
2023/04/25 07:11:25;;;;;;;7.45;2.30;;;6.90;75.10;;;;;;5057389;28;20041;-44
2023/04/25 07:13:52;;;;;;;7.07;2.10;;;7.00;74.90;;;;;;5075512;28;20089;-43
2023/04/25 07:16:19;;;;;;;8.88;2.50;;;7.20;75.30;;;;;;5075531;28;20021;-44
2023/04/25 07:18:46;;;;;;;9.73;1.67;;;7.30;75.50;;;;;;5075132;28;20349;-44
2023/04/25 07:21:12;;;;;;;10.48;2.47;;;7.40;75.60;;;;;;5074609;28;20056;-43
2023/04/25 07:23:41;;;;;;;10.18;2.30;;;7.40;75.50;;;;;;5075310;28;20043;-44
2023/04/25 07:26:08;;;;;;;16.70;2.47;;;7.60;74.60;;;;;;5090103;28;20039;-43
2023/04/25 07:28:36;;;;;;;13.95;2.22;;;7.70;73.60;;;;;;5095337;28;20036;-45
2023/04/25 07:31:02;;;;;;;10.57;2.25;;;7.80;70.90;;;;;;5095205;28;20520;-44
2023/04/25 07:33:29;;;;;;;14.68;3.05;;;7.90;69.80;;;;;;5088735;28;20062;-47
2023/04/25 07:35:55;;;;;;;9.70;2.13;;;7.90;69.80;;;;;;5057203;28;20100;-47
2023/04/25 07:38:24;;;;;;;8.43;2.30;;;7.90;70.70;;;;;;5074903;28;20535;-43
2023/04/25 07:40:51;;;;;;;11.57;2.25;;;8.00;71.70;;;;;;5057387;28;20044;-44
2023/04/25 07:43:19;;;;;;;10.93;1.52;;;8.30;71.10;;;;;;5074591;28;20086;-43
2023/04/25 07:45:50;;;;;;;8.73;2.50;;;8.90;69.00;;;;;;5074799;28;20075;-44
2023/04/25 07:48:24;;;;;;;11.40;2.40;;;9.50;66.70;;;;;;5074505;28;20036;-44
2023/04/25 07:50:52;;;;;;;14.88;1.95;;;9.00;70.60;;;;;;5074751;28;20112;-44
2023/04/25 07:53:18;;;;;;;5.38;1.33;;;8.00;73.10;;;;;;5056910;28;20481;-43
2023/04/25 07:55:44;;;;;;;4.10;1.13;;;7.70;74.10;;;;;;5078981;28;20113;-46
2023/04/25 07:58:11;;;;;;;3.78;1.52;;;7.30;69.70;;;;;;5094614;28;20059;-44
2023/04/25 08:00:38;;;;;;;10.13;2.17;;;7.20;67.90;;;;;;5094600;28;20027;-45
2023/04/25 08:03:06;;;;;;;8.80;3.00;;;7.20;68.10;;;;;;5085607;28;20596;-45
2023/04/25 08:05:32;;;;;;;12.05;5.28;;;7.30;70.70;;;;;;5074024;28;20442;-45
2023/04/25 08:07:59;;;;;;;10.60;3.38;;;7.50;71.50;;;;;;5039813;28;20039;-44
2023/04/25 08:10:26;;;;;;;6.95;2.35;;;8.30;70.30;;;;;;5074216;28;20060;-44
2023/04/25 08:12:52;;;;;;;8.32;1.77;;;8.80;68.20;;;;;;5073942;28;20465;-44
2023/04/25 08:15:19;;;;;;;10.25;2.42;;;9.40;64.90;;;;;;5082918;28;20388;-44
2023/04/25 08:17:48;;;;;;;10.13;1.70;;;10.10;64.20;;;;;;5094442;28;20103;-43
2023/04/25 08:20:14;;;;;;;8.88;2.15;;;10.40;63.70;;;;;;5093558;28;20047;-43
2023/04/25 08:22:41;;;;;;;7.25;1.60;;;10.20;62.80;;;;;;5063157;28;20021;-43
2023/04/25 08:25:09;;;;;;;8.35;1.77;;;10.60;60.40;;;;;;5055749;28;20024;-44
2023/04/25 08:27:36;;;;;;;7.22;1.80;;;11.20;56.40;;;;;;5072931;28;20067;-45
2023/04/25 08:30:08;;;;;;;8.05;1.40;;;11.50;55.30;;;;;;5072930;28;20167;-43
2023/04/25 08:32:37;;;;;;;8.13;1.98;;;10.90;56.10;;;;;;5073162;28;20033;-43
2023/04/25 08:35:06;;;;;;;9.23;1.85;;;10.40;58.40;;;;;;5073114;28;20044;-44
2023/04/25 08:37:36;;;;;;;9.95;2.13;;;10.10;60.70;;;;;;5093731;28;20511;-43
2023/04/25 08:40:06;;;;;;;8.07;1.90;;;9.70;60.60;;;;;;5075814;28;20032;-44
2023/04/25 08:42:37;;;;;;;5.90;1.77;;;9.50;61.50;;;;;;5073576;28;20033;-44
2023/04/25 08:45:03;;;;;;;7.65;2.25;;;9.90;61.60;;;;;;5073908;28;20020;-44
2023/04/25 08:47:34;;;;;;;8.18;2.10;;;10.30;60.50;;;;;;5056149;28;20048;-44
2023/04/25 08:50:07;;;;;;;9.20;1.95;;;10.60;59.50;;;;;;5056079;28;20036;-43
2023/04/25 08:52:43;;;;;;;11.50;2.20;;;10.90;58.50;;;;;;5073263;28;20024;-43
2023/04/25 08:55:12;;;;;;;11.68;3.08;;;11.20;58.60;;;;;;5055703;28;20035;-44
2023/04/25 08:57:45;;;;;;;8.45;2.20;;;11.30;56.90;;;;;;5056230;28;20024;-44
2023/04/25 09:00:22;;;;;;;10.63;2.17;;;10.90;59.30;;;;;;5073331;28;20032;-45
2023/04/25 09:02:49;;;;;;;7.22;1.42;;;10.80;60.50;;;;;;5073180;28;20047;-45
2023/04/25 09:05:22;;;;;;;8.50;2.40;;;10.70;59.80;;;;;;5073096;28;20137;-45
2023/04/25 09:07:48;;;;;;;15.45;2.53;;;10.90;58.50;;;;;;5073367;28;20061;-46
2023/04/25 09:10:15;;;;;;;8.30;1.98;;;10.70;57.80;;;;;;5055707;28;20052;-44
2023/04/25 09:12:43;;;;;;;7.32;1.15;;;10.40;57.80;;;;;;5072922;28;20477;-44
2023/04/25 09:15:12;;;;;;;6.57;2.03;;;10.40;58.60;;;;;;5055369;28;20028;-44
2023/04/25 09:17:45;;;;;;;8.23;2.80;;;10.90;58.00;;;;;;5073463;28;20112;-43
2023/04/25 09:20:14;;;;;;;7.65;1.75;;;11.40;54.70;;;;;;5072874;28;20049;-45
2023/04/25 09:22:46;;;;;;;6.90;1.98;;;11.10;54.70;;;;;;5055556;28;20118;-43
2023/04/25 09:25:16;;;;;;;7.00;1.67;;;10.40;57.00;;;;;;5073020;28;20039;-45
2023/04/25 09:27:55;;;;;;;7.80;2.15;;;9.80;60.40;;;;;;5072963;28;20021;-44
2023/04/25 09:30:41;;;;;;;12.40;2.22;;;9.40;63.00;;;;;;5072701;28;20021;-46
2023/04/25 09:33:11;;;;;;;12.07;2.15;;;9.40;64.30;;;;;;5072675;28;20028;-44
2023/04/25 09:35:43;;;;;;;9.48;1.92;;;9.50;64.40;;;;;;5055121;28;20029;-47
2023/04/25 09:38:18;;;;;;;13.90;2.38;;;9.40;66.40;;;;;;5055343;28;20467;-44
2023/04/25 09:40:49;;;;;;;8.90;1.40;;;9.50;66.30;;;;;;5055121;28;20044;-44
2023/04/25 09:43:27;;;;;;;4.32;1.48;;;9.10;63.00;;;;;;5047042;28;20040;-44
2023/04/25 09:45:59;;;;;;;5.05;1.10;;;9.10;63.40;;;;;;5075116;28;20032;-45
2023/04/25 09:48:27;;;;;;;5.63;1.20;;;9.00;62.10;;;;;;5073264;28;20039;-44
2023/04/25 09:51:11;;;;;;;8.65;1.52;;;9.10;61.50;;;;;;5093002;28;20024;-45
2023/04/25 09:53:53;;;;;;;6.32;1.30;;;9.00;62.30;;;;;;5038362;28;20167;-46
2023/04/25 09:56:24;;;;;;;6.90;1.40;;;9.30;61.50;;;;;;5072486;28;20393;-44
2023/04/25 09:58:54;;;;;;;5.55;1.98;;;9.60;60.90;;;;;;5055381;28;20033;-45
2023/04/25 10:01:22;;;;;;;7.13;1.73;;;10.30;61.30;;;;;;5055387;28;20036;-45
2023/04/25 10:03:55;;;;;;;7.25;2.20;;;11.00;60.00;;;;;;5055060;28;20032;-46
2023/04/25 10:06:24;;;;;;;8.63;1.83;;;11.50;58.60;;;;;;5055526;28;20314;-46
2023/04/25 10:08:55;;;;;;;9.73;1.80;;;11.70;55.00;;;;;;5039114;28;20037;-45
2023/04/25 10:11:26;;;;;;;6.25;1.40;;;10.60;54.60;;;;;;5072942;28;20101;-43
2023/04/25 10:13:52;;;;;;;;;;;10.00;57.40;;;;;;5055610;28;20029;-44
2023/04/25 10:16:20;;;;;;;8.20;1.88;;;10.50;58.90;;;;;;5072543;28;19909;-45
2023/04/25 10:18:48;;;;;;;5.95;1.50;;;11.00;57.50;;;;;;5054845;28;20041;-45
2023/04/25 10:21:19;;;;;;;4.07;1.50;;;11.60;58.10;;;;;;5054703;28;20060;-44
2023/04/25 10:23:49;;;;;;;9.45;1.95;;;11.80;55.10;;;;;;5072915;28;20036;-47
2023/04/25 10:26:18;;;;;;;9.33;2.70;;;11.90;55.40;;;;;;5072343;28;20047;-45
2023/04/25 10:29:02;;;;;;;9.57;2.28;;;11.40;59.60;;;;;;5072210;28;20209;-46
2023/04/25 10:31:44;;;;;;;15.82;3.30;;;10.80;61.00;;;;;;5054645;28;20037;-45
2023/04/25 10:34:10;;;;;;;10.60;1.85;;;10.50;63.10;;;;;;5071926;28;20323;-45
2023/04/25 10:36:37;;;;;;;5.93;1.52;;;10.30;62.10;;;;;;5054401;28;20496;-44
2023/04/25 10:39:09;;;;;;;10.00;2.05;;;10.30;64.90;;;;;;5072215;28;20036;-44
2023/04/25 10:42:03;;;;;;;3.72;1.20;;;10.40;63.50;;;;;;5072279;28;20056;-45
2023/04/25 10:44:31;;;;;;;4.68;1.85;;;9.90;61.40;;;;;;5073280;28;20032;-44
2023/04/25 10:47:00;;;;;;;7.45;1.55;;;9.90;63.60;;;;;;5058171;28;20098;-45
2023/04/25 10:49:44;;;;;;;4.53;1.35;;;9.40;60.90;;;;;;5051420;28;20116;-45
2023/04/25 10:52:28;;;;;;;5.82;1.88;;;9.20;63.10;;;;;;5075887;28;20525;-44
2023/04/25 10:54:57;;;;;;;7.78;2.20;;;9.20;64.30;;;;;;5075745;28;20555;-48
2023/04/25 10:57:55;;;;;;;6.97;1.67;;;9.40;64.70;;;;;;5075722;28;20637;-44
2023/04/25 11:00:39;;;;;;;8.25;2.45;;;9.40;65.30;;;;;;5063245;28;20043;-44
2023/04/25 11:03:11;;;;;;;11.00;2.30;;;9.50;64.70;;;;;;5078904;28;20039;-44
2023/04/25 11:05:43;;;;;;;9.40;2.15;;;9.50;64.50;;;;;;5095553;28;20103;-45
2023/04/25 11:08:17;;;;;;;12.30;1.90;;;9.80;67.10;;;;;;5066939;28;20615;-44
2023/04/25 11:10:45;;;;;;;10.73;3.10;;;10.40;66.80;;;;;;5041346;28;20043;-46
2023/04/25 11:13:11;;;;;;;12.57;2.28;;;10.90;65.40;;;;;;5057647;28;20139;-45
2023/04/25 11:15:37;;;;;;;12.68;3.45;;;10.90;61.50;;;;;;5090172;28;20142;-47
2023/04/25 11:18:18;;;;;;;8.90;1.70;;;10.80;61.90;;;;;;5095726;28;20039;-44
2023/04/25 11:20:48;;;;;;;9.25;1.63;;;10.80;59.60;;;;;;5095520;28;20047;-43
2023/04/25 11:23:15;;;;;;;10.43;1.88;;;10.50;59.90;;;;;;5059124;28;20040;-45
2023/04/25 11:25:43;;;;;;;7.57;2.10;;;10.80;63.00;;;;;;5074908;28;20485;-44
2023/04/25 11:28:11;;;;;;;7.45;1.90;;;10.60;61.80;;;;;;5075407;28;20401;-47
2023/04/25 11:30:39;;;;;;;14.88;2.97;;;10.40;63.60;;;;;;5088314;28;20028;-45
2023/04/25 11:33:06;;;;;;;11.27;2.33;;;10.00;64.40;;;;;;5095238;28;20020;-45
2023/04/25 11:35:33;;;;;;;16.45;3.65;;;9.80;66.50;;;;;;5080243;28;20107;-47
2023/04/25 11:37:59;;;;;;;16.08;2.55;;;9.60;65.30;;;;;;5074970;28;20021;-44
2023/04/25 11:40:30;;;;;;;11.52;2.50;;;9.60;65.30;;;;;;5083682;28;20098;-45
2023/04/25 11:42:59;;;;;;;12.00;3.22;;;9.60;67.40;;;;;;5095243;28;20036;-43
2023/04/25 11:45:28;;;;;;;12.73;2.92;;;10.00;61.60;;;;;;5095001;28;20426;-44
2023/04/25 11:47:55;;;;;;;9.85;2.60;;;10.40;62.70;;;;;;5066003;28;20072;-44
2023/04/25 11:50:22;;;;;;;7.28;1.40;;;10.90;60.90;;;;;;5074713;28;20024;-45
2023/04/25 11:52:50;;;;;;;6.75;1.85;;;11.00;60.00;;;;;;5074689;28;20500;-45
2023/04/25 11:55:20;;;;;;;8.13;1.85;;;11.20;61.10;;;;;;5073874;28;20033;-46
2023/04/25 11:57:50;;;;;;;9.05;2.42;;;10.90;59.60;;;;;;5057047;28;20021;-48
2023/04/25 12:00:35;;;;;;;9.48;1.80;;;10.30;58.60;;;;;;5057312;28;20445;-44
2023/04/25 12:03:03;;;;;;;9.32;2.17;;;10.20;60.40;;;;;;5080114;28;20012;-44
2023/04/25 12:05:37;;;;;;;6.55;1.85;;;10.70;59.80;;;;;;5076699;28;20016;-45
2023/04/25 12:08:11;;;;;;;10.73;2.00;;;11.00;56.90;;;;;;5094918;28;20493;-45
2023/04/25 12:10:40;;;;;;;8.88;2.28;;;11.10;58.30;;;;;;5094670;28;20035;-44
2023/04/25 12:13:32;;;;;;;11.57;2.22;;;11.10;59.90;;;;;;5060448;28;20086;-44
2023/04/25 12:16:00;;;;;;;11.38;1.92;;;10.30;63.50;;;;;;5056666;28;20353;-44
2023/04/25 12:18:28;;;;;;;6.38;2.08;;;9.90;62.30;;;;;;5073098;28;20446;-45
2023/04/25 12:20:55;;;;;;;11.18;2.88;;;9.40;63.50;;;;;;5066677;28;20101;-45
2023/04/25 12:23:27;;;;;;;12.60;2.40;;;9.60;66.10;;;;;;5074379;28;20029;-44
2023/04/25 12:25:56;;;;;;;12.45;2.97;;;10.00;64.80;;;;;;5074378;28;20047;-44
2023/04/25 12:28:23;;;;;;;10.43;2.42;;;10.10;64.40;;;;;;5056397;28;20354;-44
2023/04/25 12:31:04;;;;;;;8.05;1.75;;;10.50;60.50;;;;;;5073944;28;20036;-44
2023/04/25 12:33:48;;;;;;;14.77;2.13;;;10.60;61.10;;;;;;5073839;28;20103;-43
2023/04/25 12:36:16;;;;;;;9.27;2.55;;;10.40;57.20;;;;;;5073842;28;20029;-44
2023/04/25 12:38:44;;;;;;;12.10;3.43;;;10.10;60.70;;;;;;5073514;28;20039;-47
2023/04/25 12:41:11;;;;;;;7.97;1.98;;;10.40;61.60;;;;;;5073626;28;20254;-47
2023/04/25 12:43:37;;;;;;;8.10;2.63;;;10.60;59.70;;;;;;5073560;28;20032;-45
2023/04/25 12:46:05;;;;;;;11.18;2.10;;;10.40;62.20;;;;;;5055980;28;20024;-44
2023/04/25 12:48:38;;;;;;;10.07;2.83;;;10.00;66.80;;;;;;5073553;28;20029;-45
2023/04/25 12:51:05;;;;;;;10.70;2.78;;;9.90;69.40;;;;;;5073866;28;20334;-43
2023/04/25 12:53:32;;;;;;;6.57;2.00;;;10.00;67.60;;;;;;5056393;28;20033;-46
2023/04/25 12:55:58;;;;;;;11.82;1.90;;;10.30;63.80;;;;;;5073458;28;20017;-47
2023/04/25 12:58:25;;;;;;;8.20;2.58;;;10.90;63.90;;;;;;5072954;28;20093;-45